Time;durP1;ratioP1;P1;durP2;ratioP2;P2;SDS_P1;SDS_P2;PMS_P1;PMS_P2;Temp;Humidity;BMP_temperature;BMP_pressure;BME280_temperature;BME280_humidity;BME280_pressure;Samples;Min_cycle;Max_cycle;Signal;HPM_P1;HPM_P2
2021/11/17 02:27:34;;;;;;;13.10;8.40;;;5.70;96.70;;;;;;5113144;27;20215;-91
2021/11/17 02:30:30;;;;;;;11.63;8.40;;;5.60;96.80;;;;;;5101057;27;20328;-91
2021/11/17 02:33:10;;;;;;;14.97;8.67;;;5.60;96.30;;;;;;5098754;27;20245;-91
2021/11/17 02:36:15;;;;;;;14.43;8.37;;;5.60;96.00;;;;;;5111386;27;20231;-91
2021/11/17 02:39:02;;;;;;;13.80;7.90;;;5.50;96.80;;;;;;5100693;27;20605;-91
2021/11/17 02:41:53;;;;;;;10.73;7.90;;;5.60;96.10;;;;;;5111026;27;20231;-91
2021/11/17 02:44:38;;;;;;;10.70;7.17;;;5.80;95.60;;;;;;5108543;27;20227;-91
2021/11/17 02:47:24;;;;;;;11.37;7.37;;;5.70;95.20;;;;;;5105679;27;20207;-91
2021/11/17 02:50:09;;;;;;;11.03;7.37;;;5.80;95.70;;;;;;5109667;27;20717;-91
2021/11/17 02:52:52;;;;;;;12.83;7.97;;;6.00;95.70;;;;;;5114341;27;20195;-90
2021/11/17 02:55:44;;;;;;;12.17;8.13;;;6.00;94.70;;;;;;5109565;28;20218;-91
2021/11/17 02:58:31;;;;;;;10.00;7.43;;;5.80;94.80;;;;;;5106277;27;20219;-91
2021/11/17 03:01:16;;;;;;;12.13;8.57;;;5.80;95.80;;;;;;5112619;28;20224;-91
2021/11/17 03:03:58;;;;;;;10.73;7.93;;;5.60;95.20;;;;;;5112463;27;20307;-91
2021/11/17 03:06:47;;;;;;;13.37;7.70;;;5.60;95.20;;;;;;5106553;28;20199;-91
2021/11/17 03:09:30;;;;;;;12.60;8.07;;;5.50;95.40;;;;;;5115473;27;20238;-91
2021/11/17 03:12:20;;;;;;;11.87;7.90;;;5.60;95.90;;;;;;5112468;27;20199;-91
2021/11/17 03:15:02;;;;;;;9.70;7.43;;;5.90;96.60;;;;;;5110767;27;20219;-91
2021/11/17 03:17:45;;;;;;;13.40;8.23;;;5.90;95.30;;;;;;5111928;28;20199;-91
2021/11/17 03:20:42;;;;;;;13.07;8.10;;;5.70;95.20;;;;;;5114019;27;20214;-91
2021/11/17 03:23:22;;;;;;;11.03;8.13;;;5.70;95.60;;;;;;5079013;27;20223;-91
2021/11/17 03:26:02;;;;;;;11.90;8.43;;;5.70;97.00;;;;;;5106809;28;20210;-91
2021/11/17 03:29:04;;;;;;;10.50;7.60;;;5.80;95.30;;;;;;5102954;27;20223;-91
2021/11/17 03:31:45;;;;;;;13.00;8.10;;;5.80;95.80;;;;;;5104964;28;20204;-91
2021/11/17 03:34:28;;;;;;;10.00;7.87;;;5.80;96.10;;;;;;5111914;27;20216;-91
2021/11/17 03:37:10;;;;;;;11.00;8.40;;;5.70;96.30;;;;;;5112656;27;20207;-91
2021/11/17 03:39:59;;;;;;;12.67;9.07;;;5.70;96.40;;;;;;5106107;27;20270;-91
2021/11/17 03:42:44;;;;;;;11.43;8.07;;;5.70;96.60;;;;;;5107522;28;20642;-90
2021/11/17 03:45:36;;;;;;;11.10;8.50;;;5.70;96.50;;;;;;5112497;28;20682;-90
2021/11/17 03:48:25;;;;;;;13.27;8.77;;;5.50;96.20;;;;;;5105330;27;20231;-90
2021/11/17 03:51:08;;;;;;;14.57;9.53;;;5.50;97.20;;;;;;5110008;27;20223;-91
2021/11/17 03:53:47;;;;;;;11.50;8.43;;;5.40;96.70;;;;;;5116533;27;20215;-92
2021/11/17 03:56:32;;;;;;;12.37;8.77;;;5.30;96.90;;;;;;5113557;27;20196;-91
2021/11/17 03:59:17;;;;;;;13.07;8.40;;;5.50;97.40;;;;;;5111791;27;20235;-91
2021/11/17 04:01:56;;;;;;;13.63;9.00;;;5.70;97.20;;;;;;5109833;27;20223;-92
2021/11/17 04:04:48;;;;;;;11.57;8.47;;;5.60;96.00;;;;;;5111826;27;20234;-92
2021/11/17 04:07:28;;;;;;;13.87;9.07;;;5.70;96.30;;;;;;5111353;27;20210;-91
2021/11/17 04:10:10;;;;;;;12.83;9.53;;;5.60;95.90;;;;;;5104551;27;20216;-91
2021/11/17 04:12:48;;;;;;;11.60;8.73;;;5.50;96.50;;;;;;5113511;27;20507;-91
2021/11/17 04:15:39;;;;;;;13.17;8.77;;;5.60;96.90;;;;;;5118430;27;20234;-91
2021/11/17 04:18:15;;;;;;;13.20;9.03;;;5.80;97.00;;;;;;5119392;27;20237;-91
2021/11/17 04:21:15;;;;;;;14.70;9.67;;;5.80;96.50;;;;;;5109850;27;20207;-91
2021/11/17 04:24:01;;;;;;;12.93;9.27;;;5.70;96.30;;;;;;5108256;28;20227;-91
2021/11/17 04:26:45;;;;;;;12.60;8.67;;;5.60;96.10;;;;;;5105980;28;20201;-92
2021/11/17 04:29:29;;;;;;;14.03;9.43;;;5.50;96.80;;;;;;5106359;27;20222;-91
2021/11/17 04:32:11;;;;;;;14.07;8.83;;;5.60;97.60;;;;;;5086412;28;20196;-92
2021/11/17 04:35:20;;;;;;;14.33;9.70;;;5.60;97.00;;;;;;5115168;27;20220;-90
2021/11/17 04:38:23;;;;;;;11.87;8.73;;;5.70;96.90;;;;;;5026778;28;20194;-90
2021/11/17 04:41:31;;;;;;;13.43;9.20;;;5.90;97.60;;;;;;5023873;28;20217;-90
2021/11/17 04:44:28;;;;;;;16.20;9.47;;;5.90;96.10;;;;;;5098785;27;20526;-90
2021/11/17 04:47:17;;;;;;;12.20;8.90;;;5.70;96.10;;;;;;5120921;27;20541;-91
2021/11/17 04:49:56;;;;;;;11.53;8.70;;;5.90;97.50;;;;;;5108505;27;20234;-91
2021/11/17 04:52:45;;;;;;;12.83;9.40;;;5.80;96.60;;;;;;5121526;27;20202;-91
2021/11/17 04:55:28;;;;;;;11.30;8.10;;;5.80;96.90;;;;;;5120569;27;20218;-90
2021/11/17 04:58:24;;;;;;;15.27;8.80;;;5.90;97.90;;;;;;5106241;27;20204;-91
2021/11/17 05:01:14;;;;;;;12.40;8.60;;;6.00;97.00;;;;;;5114702;27;20206;-90
2021/11/17 05:03:54;;;;;;;14.07;9.20;;;6.10;96.30;;;;;;5114784;27;20223;-90
2021/11/17 05:06:42;;;;;;;13.00;8.17;;;5.90;95.70;;;;;;5104063;28;20994;-90
2021/11/17 05:09:17;;;;;;;11.90;8.77;;;5.80;97.00;;;;;;5107651;28;20873;-90
2021/11/17 05:11:55;;;;;;;13.73;8.77;;;5.80;96.90;;;;;;5106421;27;20602;-90
2021/11/17 05:14:32;;;;;;;13.07;8.97;;;5.60;96.80;;;;;;5107530;27;20227;-90
2021/11/17 05:17:11;;;;;;;13.97;9.23;;;5.50;96.70;;;;;;5113179;27;20196;-91
2021/11/17 05:19:47;;;;;;;14.63;9.33;;;5.60;97.00;;;;;;5112334;27;20276;-91
2021/11/17 05:22:35;;;;;;;12.77;8.97;;;5.60;96.70;;;;;;5105121;28;20224;-91
2021/11/17 05:25:17;;;;;;;12.83;9.47;;;5.50;96.70;;;;;;5102334;28;20694;-90
2021/11/17 05:28:00;;;;;;;12.47;8.67;;;5.40;96.40;;;;;;5111311;27;20204;-91
2021/11/17 05:30:44;;;;;;;13.07;9.07;;;5.50;97.20;;;;;;5105842;27;20204;-91
2021/11/17 05:33:27;;;;;;;12.67;9.70;;;5.70;96.80;;;;;;5107503;27;20231;-90
2021/11/17 05:36:11;;;;;;;13.33;9.27;;;5.60;96.60;;;;;;5103077;27;20554;-90
2021/11/17 05:38:50;;;;;;;13.23;9.30;;;5.70;96.50;;;;;;5109263;27;20219;-91
2021/11/17 05:41:31;;;;;;;13.60;9.50;;;5.70;96.10;;;;;;5105894;27;20196;-90
2021/11/17 05:44:12;;;;;;;16.07;9.03;;;5.70;96.80;;;;;;5106745;27;20232;-91
2021/11/17 05:46:53;;;;;;;13.10;9.23;;;5.70;96.70;;;;;;5107188;28;20206;-91
2021/11/17 05:49:31;;;;;;;13.43;8.93;;;5.90;96.30;;;;;;5105280;27;20312;-90
2021/11/17 05:52:23;;;;;;;11.60;8.93;;;5.80;95.80;;;;;;5114299;27;20188;-90
2021/11/17 05:55:04;;;;;;;13.07;9.80;;;5.60;95.60;;;;;;5102916;28;20215;-91
2021/11/17 05:57:51;;;;;;;14.50;9.40;;;5.50;95.50;;;;;;5107292;28;20943;-90
2021/11/17 06:00:43;;;;;;;13.40;9.23;;;5.50;97.00;;;;;;5105935;27;20222;-90
2021/11/17 06:03:26;;;;;;;13.27;9.90;;;5.70;97.00;;;;;;5100640;27;20224;-90
2021/11/17 06:05:53;;;;;;;11.83;9.30;;;5.60;96.10;;;;;;5107202;28;20227;-91
2021/11/17 06:08:20;;;;;;;17.03;10.63;;;5.60;96.50;;;;;;5107696;27;20748;-91
2021/11/17 06:10:50;;;;;;;13.80;9.27;;;5.50;96.30;;;;;;5112396;27;20235;-90
2021/11/17 06:13:17;;;;;;;13.30;9.60;;;5.60;96.80;;;;;;5108902;28;20231;-91
2021/11/17 06:15:46;;;;;;;12.87;9.43;;;5.50;96.90;;;;;;5106760;27;20204;-91
2021/11/17 06:18:17;;;;;;;12.87;9.17;;;5.50;96.50;;;;;;5113928;27;20216;-91
2021/11/17 06:20:46;;;;;;;14.40;9.90;;;5.60;96.70;;;;;;5116833;27;20206;-90
2021/11/17 06:23:18;;;;;;;16.45;10.48;;;5.80;96.70;;;;;;5111267;27;20223;-91
2021/11/17 06:25:53;;;;;;;16.00;10.93;;;5.70;95.70;;;;;;5108197;28;21018;-90
2021/11/17 06:28:22;;;;;;;15.00;10.70;;;5.50;96.20;;;;;;5106373;27;20220;-90
2021/11/17 06:30:51;;;;;;;14.07;9.97;;;5.40;96.60;;;;;;5110062;27;20641;-90
2021/11/17 06:33:18;;;;;;;14.47;9.87;;;5.40;97.00;;;;;;5106737;27;20232;-91
2021/11/17 06:35:45;;;;;;;15.67;10.33;;;5.60;97.20;;;;;;5111081;27;20668;-91
2021/11/17 06:38:13;;;;;;;15.50;9.93;;;5.50;96.60;;;;;;5107273;27;20219;-91
2021/11/17 06:40:42;;;;;;;14.33;10.10;;;5.70;97.30;;;;;;5110350;28;20212;-91
2021/11/17 06:43:11;;;;;;;14.37;9.97;;;5.70;96.20;;;;;;5108486;27;20231;-91
2021/11/17 06:45:40;;;;;;;14.97;10.07;;;5.60;96.30;;;;;;5110392;27;20192;-91
2021/11/17 06:48:08;;;;;;;13.67;9.60;;;5.60;95.90;;;;;;5113768;27;20230;-91
2021/11/17 06:50:37;;;;;;;12.73;9.10;;;5.50;96.40;;;;;;5110836;28;20579;-93
2021/11/17 06:53:05;;;;;;;14.13;9.30;;;5.60;97.10;;;;;;5107265;27;20287;-93
2021/11/17 06:55:35;;;;;;;12.43;9.43;;;5.60;96.90;;;;;;5111119;28;20657;-93
2021/11/17 06:58:04;;;;;;;16.23;9.70;;;5.60;96.80;;;;;;5117194;27;20223;-93
2021/11/17 07:03:19;;;;;;;13.53;9.43;;;5.80;96.00;;;;;;5106588;28;20216;-94
2021/11/17 07:05:49;;;;;;;16.13;9.70;;;5.70;96.10;;;;;;5106916;28;20222;-92
2021/11/17 07:08:16;;;;;;;15.47;9.93;;;5.60;96.20;;;;;;5104782;27;22067;-92
2021/11/17 07:10:43;;;;;;;15.93;10.77;;;5.60;96.60;;;;;;5112863;28;20231;-92
2021/11/17 07:13:11;;;;;;;15.03;9.67;;;5.60;96.60;;;;;;5106864;27;20227;-92
2021/11/17 07:15:42;;;;;;;13.87;9.83;;;5.50;97.00;;;;;;5110800;28;20211;-92
2021/11/17 07:18:09;;;;;;;11.73;8.87;;;5.50;96.90;;;;;;5109438;28;20223;-92
2021/11/17 07:20:38;;;;;;;13.60;9.63;;;5.60;97.60;;;;;;5110440;28;20200;-92
2021/11/17 07:23:05;;;;;;;12.90;9.33;;;5.70;96.40;;;;;;5117327;27;20227;-92
2021/11/17 07:25:32;;;;;;;15.87;9.57;;;5.70;96.40;;;;;;5118661;27;20291;-92
2021/11/17 07:28:00;;;;;;;14.47;9.43;;;5.70;96.30;;;;;;5118957;27;20196;-92
2021/11/17 07:30:30;;;;;;;13.63;9.60;;;5.80;96.70;;;;;;5115513;27;20679;-93
2021/11/17 07:33:01;;;;;;;13.23;9.07;;;6.00;96.40;;;;;;5113841;27;20592;-92
2021/11/17 07:35:29;;;;;;;15.50;10.03;;;6.00;95.50;;;;;;5112880;28;20204;-92
2021/11/17 07:38:01;;;;;;;12.73;9.30;;;6.20;96.30;;;;;;5110937;27;20195;-92
2021/11/17 07:40:28;;;;;;;14.73;10.73;;;6.00;95.50;;;;;;5115052;27;20271;-92
2021/11/17 07:42:55;;;;;;;13.70;9.83;;;6.00;95.70;;;;;;5110283;27;20699;-92
2021/11/17 07:45:23;;;;;;;13.60;10.00;;;6.20;95.40;;;;;;5115218;27;20199;-92
2021/11/17 07:47:59;;;;;;;14.55;9.85;;;6.20;95.30;;;;;;5113870;27;20198;-92
2021/11/17 07:50:52;;;;;;;13.67;9.20;;;6.30;95.40;;;;;;5113843;27;20227;-92
2021/11/17 07:53:40;;;;;;;13.90;9.13;;;6.40;95.40;;;;;;5112633;27;20220;-92
2021/11/17 07:56:08;;;;;;;13.67;9.83;;;6.40;94.60;;;;;;5115757;27;20196;-92
2021/11/17 07:58:43;;;;;;;15.00;9.38;;;6.30;94.80;;;;;;5113963;28;20235;-92
2021/11/17 08:01:11;;;;;;;24.45;11.63;;;6.30;95.40;;;;;;5112496;27;20207;-92
2021/11/17 08:03:42;;;;;;;15.60;10.05;;;6.60;95.40;;;;;;5113756;27;20228;-94
2021/11/17 08:06:27;;;;;;;15.07;10.87;;;6.60;94.20;;;;;;5118874;27;20291;-91
2021/11/17 08:08:54;;;;;;;13.68;11.15;;;6.70;94.60;;;;;;5121828;27;20215;-90
2021/11/17 08:11:23;;;;;;;14.90;10.52;;;6.70;93.70;;;;;;5121466;27;20720;-92
2021/11/17 08:13:51;;;;;;;13.35;10.38;;;6.60;94.00;;;;;;5126443;27;20235;-93
2021/11/17 08:19:52;;;;;;;15.00;10.10;;;6.90;94.60;;;;;;5122547;27;20257;-92
2021/11/17 08:35:25;;;;;;;15.63;9.40;;;7.00;92.90;;;;;;5138712;27;20184;-93
2021/11/17 08:46:18;;;;;;;18.02;9.25;;;7.20;93.40;;;;;;5120913;27;20194;-92
2021/11/17 08:48:47;;;;;;;14.80;9.95;;;6.80;92.10;;;;;;5142979;27;20272;-93
2021/11/17 08:51:18;;;;;;;15.02;10.38;;;6.90;93.70;;;;;;5168545;22;20806;-93
2021/11/17 08:56:55;;;;;;;13.27;10.15;;;6.60;93.70;;;;;;5101462;28;20196;-93
2021/11/17 08:59:23;;;;;;;13.00;9.95;;;6.50;93.60;;;;;;5080552;28;20201;-92
2021/11/17 09:02:14;;;;;;;13.18;10.10;;;6.60;95.00;;;;;;5079979;28;20189;-93
2021/11/17 09:05:33;;;;;;;14.25;9.48;;;6.60;93.90;;;;;;5086262;28;20238;-90
2021/11/17 09:08:00;;;;;;;14.40;10.07;;;6.70;93.80;;;;;;5104428;28;20226;-94
2021/11/17 09:13:46;;;;;;;14.10;10.37;;;6.70;93.80;;;;;;5078929;28;20194;-91
2021/11/17 09:18:55;;;;;;;13.75;9.88;;;6.70;94.10;;;;;;5053466;28;20548;-93
2021/11/17 10:57:33;;;;;;;10.47;6.97;;;6.70;93.40;;;;;;5041158;28;20669;-93
2021/11/17 11:03:15;;;;;;;9.93;7.30;;;6.70;93.90;;;;;;5026179;28;20233;-91
2021/11/17 11:05:47;;;;;;;10.30;7.60;;;6.70;93.40;;;;;;5054945;28;20202;-93
2021/11/17 11:22:16;;;;;;;8.50;6.07;;;6.90;92.60;;;;;;5028335;28;20672;-91
2021/11/17 11:24:46;;;;;;;10.97;6.67;;;6.90;92.30;;;;;;5038032;28;20266;-91
2021/11/17 11:27:45;;;;;;;8.70;6.10;;;6.90;92.30;;;;;;5043306;28;20228;-92
2021/11/17 11:39:52;;;;;;;6.70;4.97;;;7.20;91.70;;;;;;5036175;28;20249;-91
2021/11/17 12:07:43;;;;;;;7.27;5.00;;;7.30;91.00;;;;;;5040259;28;20198;-91
2021/11/17 12:16:50;;;;;;;7.85;4.72;;;7.40;91.10;;;;;;5021164;28;20205;-92
2021/11/17 12:22:17;;;;;;;7.38;5.18;;;7.30;90.10;;;;;;5059539;28;20271;-90
2021/11/17 12:39:08;;;;;;;4.70;4.13;;;7.60;90.20;;;;;;5007144;28;20214;-91
2021/11/17 12:41:38;;;;;;;7.82;4.15;;;7.60;89.00;;;;;;5002965;28;20558;-93
2021/11/17 12:44:08;;;;;;;9.45;4.55;;;7.20;89.10;;;;;;5053779;28;20222;-93
2021/11/17 12:47:02;;;;;;;6.32;4.25;;;7.20;90.10;;;;;;5073981;28;20239;-92
2021/11/17 12:56:06;;;;;;;6.20;4.05;;;7.30;90.50;;;;;;5071043;28;20169;-92
2021/11/17 12:59:05;;;;;;;4.32;3.88;;;7.50;90.10;;;;;;5079845;28;20320;-94
2021/11/17 13:01:37;;;;;;;5.57;3.65;;;7.50;90.10;;;;;;5078016;28;20200;-93
2021/11/17 13:04:31;;;;;;;4.80;3.55;;;7.50;90.10;;;;;;5083769;28;20233;-93
2021/11/17 13:09:58;;;;;;;4.50;3.30;;;7.30;89.70;;;;;;5047495;28;20203;-94
2021/11/17 13:15:21;;;;;;;4.72;3.83;;;7.20;90.10;;;;;;5062558;28;20251;-94
2021/11/17 13:17:50;;;;;;;6.25;4.00;;;7.00;90.50;;;;;;5066239;28;20648;-92
2021/11/17 13:20:26;;;;;;;4.80;3.67;;;6.90;91.00;;;;;;5060188;28;20206;-92
2021/11/17 13:26:00;;;;;;;5.78;3.60;;;6.80;91.70;;;;;;5066660;28;20221;-93
2021/11/17 13:28:49;;;;;;;6.85;3.75;;;6.90;92.00;;;;;;5061721;28;20225;-93
2021/11/17 13:31:40;;;;;;;5.03;3.45;;;6.90;91.60;;;;;;5060354;28;20205;-93
2021/11/17 13:37:26;;;;;;;4.82;3.88;;;7.00;91.30;;;;;;5075740;28;20213;-94
2021/11/17 13:48:29;;;;;;;6.28;3.90;;;7.30;91.00;;;;;;5041000;28;20229;-95
2021/11/17 13:59:09;;;;;;;4.75;3.50;;;6.90;91.70;;;;;;5066647;28;20679;-94
2021/11/17 14:01:37;;;;;;;7.75;3.40;;;6.80;91.50;;;;;;5046325;28;20219;-94
2021/11/17 14:04:24;;;;;;;4.38;3.47;;;6.90;91.60;;;;;;5053205;28;20659;-94
2021/11/17 14:17:41;;;;;;;3.93;3.30;;;6.80;91.40;;;;;;5042218;28;20243;-94
2021/11/17 14:25:33;;;;;;;5.70;3.30;;;7.10;90.10;;;;;;5046341;28;20202;-94
2021/11/17 14:31:13;;;;;;;5.47;3.90;;;7.00;90.30;;;;;;5055246;28;20205;-90
2021/11/17 14:33:44;;;;;;;4.75;3.10;;;6.90;90.80;;;;;;5060620;28;21241;-87
2021/11/17 14:36:12;;;;;;;5.13;3.70;;;6.90;91.00;;;;;;5066430;28;20188;-88
2021/11/17 14:38:40;;;;;;;4.20;3.23;;;6.80;90.60;;;;;;5063950;28;20568;-88
2021/11/17 14:41:08;;;;;;;3.90;3.35;;;6.70;91.00;;;;;;5060826;28;20720;-91
2021/11/17 14:43:38;;;;;;;6.22;3.55;;;6.70;90.80;;;;;;5051389;28;20783;-89
2021/11/17 14:46:05;;;;;;;6.63;4.10;;;6.80;91.00;;;;;;5060566;28;20554;-89
2021/11/17 14:48:33;;;;;;;6.33;4.30;;;6.70;91.10;;;;;;5046865;28;20219;-90
2021/11/17 14:51:02;;;;;;;9.10;4.17;;;6.60;91.20;;;;;;5059021;28;20233;-91
2021/11/17 14:53:29;;;;;;;5.50;4.43;;;6.60;91.00;;;;;;5071503;28;20623;-88
2021/11/17 14:55:56;;;;;;;6.50;4.60;;;6.50;91.50;;;;;;5064549;28;20224;-90
2021/11/17 14:58:23;;;;;;;7.27;4.23;;;6.40;91.60;;;;;;5065211;28;20311;-89
2021/11/17 15:00:54;;;;;;;5.50;4.60;;;6.40;91.30;;;;;;5063782;28;20277;-89
2021/11/17 15:03:21;;;;;;;5.33;4.40;;;6.40;91.50;;;;;;5071154;28;20233;-90
2021/11/17 15:05:49;;;;;;;5.97;4.73;;;6.40;91.80;;;;;;5038622;28;20651;-90
2021/11/17 15:08:16;;;;;;;5.27;3.67;;;6.50;91.10;;;;;;5067895;28;20707;-90
2021/11/17 15:10:45;;;;;;;4.63;3.80;;;6.50;90.70;;;;;;5062664;28;20567;-89
2021/11/17 15:13:13;;;;;;;6.00;4.10;;;6.40;90.80;;;;;;5067122;28;20875;-90
2021/11/17 15:15:43;;;;;;;4.87;3.33;;;6.30;90.90;;;;;;5063211;28;20205;-89
2021/11/17 15:18:12;;;;;;;4.90;3.80;;;6.30;91.20;;;;;;5063354;28;20224;-91
2021/11/17 15:20:39;;;;;;;4.53;3.37;;;6.20;91.20;;;;;;5045625;28;20208;-89
2021/11/17 15:23:09;;;;;;;5.93;3.90;;;6.40;91.50;;;;;;5052846;28;20232;-89
2021/11/17 15:25:42;;;;;;;5.13;3.80;;;6.40;90.10;;;;;;5069667;28;20228;-90
2021/11/17 15:28:16;;;;;;;8.50;3.40;;;6.40;90.90;;;;;;5047372;28;20248;-92
2021/11/17 15:30:46;;;;;;;4.77;3.60;;;6.20;90.50;;;;;;5066551;28;20197;-89
2021/11/17 15:33:15;;;;;;;5.30;3.20;;;6.30;90.80;;;;;;5067673;28;20579;-93
2021/11/17 15:35:43;;;;;;;6.57;3.87;;;6.30;90.80;;;;;;5058764;28;20343;-92
2021/11/17 15:38:11;;;;;;;5.07;3.37;;;6.20;90.90;;;;;;5062538;28;20229;-91
2021/11/17 15:40:42;;;;;;;4.33;3.23;;;6.20;90.90;;;;;;5063480;28;20212;-92
2021/11/17 15:43:09;;;;;;;4.27;3.53;;;6.30;91.00;;;;;;5068548;28;20278;-92
2021/11/17 15:45:37;;;;;;;8.53;3.40;;;6.50;91.00;;;;;;5052491;28;20217;-92
2021/11/17 15:48:06;;;;;;;5.37;3.90;;;6.50;90.80;;;;;;5070126;28;20284;-92
2021/11/17 15:50:38;;;;;;;6.47;3.27;;;6.40;90.90;;;;;;5073604;28;20236;-91
2021/11/17 15:53:06;;;;;;;5.60;3.50;;;6.30;91.10;;;;;;5069453;28;20196;-89
2021/11/17 15:55:33;;;;;;;3.70;3.10;;;6.20;91.40;;;;;;5067100;28;20601;-91
2021/11/17 15:58:02;;;;;;;5.50;3.63;;;6.10;91.40;;;;;;5053150;28;20240;-89
2021/11/17 16:00:32;;;;;;;3.57;2.83;;;6.10;91.90;;;;;;5072555;28;20236;-89
2021/11/17 16:02:59;;;;;;;6.00;3.10;;;6.00;91.70;;;;;;5071114;28;20202;-90
2021/11/17 16:05:26;;;;;;;6.37;3.17;;;6.00;92.50;;;;;;5069041;28;20236;-89
2021/11/17 16:07:59;;;;;;;5.60;3.53;;;5.90;92.30;;;;;;5066251;28;20247;-89
2021/11/17 16:10:28;;;;;;;5.90;3.70;;;6.10;92.00;;;;;;5053674;28;20600;-89
2021/11/17 16:12:56;;;;;;;6.10;3.97;;;6.30;91.80;;;;;;5063356;28;20206;-89
2021/11/17 16:15:23;;;;;;;3.67;3.00;;;6.20;91.80;;;;;;5065162;28;20288;-89
2021/11/17 16:17:50;;;;;;;7.70;3.53;;;6.20;92.00;;;;;;5052132;28;20198;-89
2021/11/17 16:20:20;;;;;;;5.93;3.57;;;6.10;92.40;;;;;;5068838;28;20201;-89
2021/11/17 16:23:06;;;;;;;4.33;3.60;;;6.00;92.10;;;;;;5072204;28;20645;-90
2021/11/17 16:25:36;;;;;;;3.77;2.97;;;6.00;92.30;;;;;;5072880;28;20209;-89
2021/11/17 16:28:08;;;;;;;4.73;3.33;;;6.10;92.60;;;;;;5069129;28;20194;-89
2021/11/17 16:30:36;;;;;;;5.83;3.50;;;6.20;92.20;;;;;;5073743;28;20201;-89
2021/11/17 16:33:03;;;;;;;9.00;3.67;;;6.10;92.10;;;;;;5057611;28;20202;-88
2021/11/17 16:35:30;;;;;;;3.40;3.10;;;6.10;92.30;;;;;;5075735;28;20221;-87
2021/11/17 16:38:00;;;;;;;4.80;3.63;;;6.10;92.40;;;;;;5038702;28;20198;-90
2021/11/17 16:40:30;;;;;;;6.07;3.50;;;6.20;92.00;;;;;;5057077;28;20208;-90
2021/11/17 16:42:59;;;;;;;4.93;3.70;;;6.20;91.80;;;;;;5062171;28;20660;-88
2021/11/17 16:45:26;;;;;;;4.57;3.47;;;6.10;91.90;;;;;;5071572;28;20232;-87
2021/11/17 16:47:53;;;;;;;5.57;3.93;;;6.10;92.10;;;;;;5069035;28;20197;-89
2021/11/17 16:50:23;;;;;;;5.07;3.70;;;6.00;92.40;;;;;;5068516;28;20229;-90
2021/11/17 16:52:51;;;;;;;6.30;3.73;;;5.90;92.20;;;;;;5071327;28;20216;-88
2021/11/17 16:55:21;;;;;;;3.90;3.30;;;5.90;92.30;;;;;;5032537;28;20292;-90
2021/11/17 16:57:50;;;;;;;3.93;3.50;;;6.00;92.40;;;;;;5052006;28;20201;-88
2021/11/17 17:03:05;;;;;;;5.23;3.53;;;5.90;92.40;;;;;;5049150;28;20201;-90
2021/11/17 17:05:32;;;;;;;3.73;3.37;;;6.00;92.50;;;;;;5049838;28;20217;-87
2021/11/17 17:08:00;;;;;;;5.63;3.60;;;6.10;92.40;;;;;;5063225;28;20201;-89
2021/11/17 17:10:29;;;;;;;5.60;3.33;;;6.20;91.40;;;;;;5043678;28;20202;-86
2021/11/17 17:12:56;;;;;;;4.40;3.80;;;6.20;91.00;;;;;;5061240;28;20198;-88
2021/11/17 17:15:29;;;;;;;4.30;3.63;;;6.30;91.00;;;;;;5071880;28;20201;-88
2021/11/17 17:17:57;;;;;;;4.53;3.80;;;6.30;91.10;;;;;;5049717;28;20209;-87
2021/11/17 17:20:27;;;;;;;4.23;3.60;;;6.20;91.10;;;;;;5065480;28;20205;-88
2021/11/17 17:22:55;;;;;;;4.97;3.47;;;6.20;91.10;;;;;;5066241;28;20592;-87
2021/11/17 17:25:24;;;;;;;4.57;3.47;;;6.20;91.20;;;;;;5058517;28;20228;-88
2021/11/17 17:27:51;;;;;;;4.57;3.73;;;6.20;91.40;;;;;;5072352;28;20201;-88
2021/11/17 17:30:23;;;;;;;4.07;3.57;;;6.10;91.50;;;;;;5068700;28;20240;-87
2021/11/17 17:32:51;;;;;;;5.73;3.60;;;6.00;91.60;;;;;;5069224;28;20201;-88
2021/11/17 17:35:19;;;;;;;3.90;3.50;;;5.80;92.20;;;;;;5070259;28;20204;-87
2021/11/17 17:37:46;;;;;;;4.77;3.97;;;5.80;92.10;;;;;;5071459;28;20200;-89
2021/11/17 17:40:14;;;;;;;5.23;3.77;;;5.90;92.20;;;;;;5063987;28;20273;-87
2021/11/17 17:42:42;;;;;;;4.37;3.47;;;5.90;92.10;;;;;;5070101;28;20821;-89
2021/11/17 17:45:11;;;;;;;5.37;3.50;;;6.00;92.10;;;;;;5063923;28;20571;-89
2021/11/17 17:47:39;;;;;;;5.73;3.53;;;6.00;91.70;;;;;;5044676;28;20757;-87
2021/11/17 17:50:10;;;;;;;5.73;3.90;;;6.00;91.20;;;;;;5061932;28;20308;-87
2021/11/17 17:52:39;;;;;;;4.07;3.60;;;5.90;91.20;;;;;;5063913;28;20189;-89
2021/11/17 17:55:07;;;;;;;5.00;3.70;;;5.90;91.20;;;;;;5067277;28;20232;-90
2021/11/17 17:57:34;;;;;;;5.77;3.63;;;5.80;91.50;;;;;;5068746;28;20201;-89
2021/11/17 18:00:02;;;;;;;5.10;4.10;;;5.80;91.50;;;;;;5070100;28;20280;-89
2021/11/17 18:02:29;;;;;;;5.00;4.27;;;5.70;91.30;;;;;;5069306;28;20204;-89
2021/11/17 18:04:57;;;;;;;5.53;4.43;;;5.80;91.50;;;;;;5018126;28;20739;-89
2021/11/17 18:07:26;;;;;;;5.47;4.07;;;5.80;91.40;;;;;;5070721;28;20199;-89
2021/11/17 18:09:53;;;;;;;4.40;4.00;;;5.80;91.00;;;;;;5070671;28;20257;-87
2021/11/17 18:12:20;;;;;;;4.17;3.57;;;5.70;90.90;;;;;;5049242;28;20675;-89
2021/11/17 18:14:47;;;;;;;4.57;3.70;;;5.80;90.90;;;;;;5069495;28;20225;-89
2021/11/17 18:17:13;;;;;;;5.80;3.90;;;5.90;90.70;;;;;;5070526;28;20197;-88
2021/11/17 18:19:40;;;;;;;5.47;4.20;;;5.80;91.00;;;;;;5064905;28;20221;-87
2021/11/17 18:22:07;;;;;;;3.90;3.50;;;5.80;90.80;;;;;;5055432;28;20691;-88
2021/11/17 18:24:36;;;;;;;4.00;3.60;;;5.80;90.80;;;;;;5051467;28;20707;-87
2021/11/17 18:27:07;;;;;;;4.20;3.80;;;5.90;90.90;;;;;;5062920;28;20252;-87
2021/11/17 18:29:34;;;;;;;3.93;3.43;;;5.80;91.00;;;;;;5061501;28;20304;-87
2021/11/17 18:32:02;;;;;;;4.23;3.67;;;5.90;91.00;;;;;;5071617;28;20197;-87
2021/11/17 18:34:29;;;;;;;4.00;3.60;;;5.90;91.00;;;;;;5045896;28;20748;-87
2021/11/17 18:36:57;;;;;;;4.27;3.80;;;5.80;91.10;;;;;;5067375;28;20288;-87
2021/11/17 18:39:24;;;;;;;3.93;3.53;;;5.90;91.20;;;;;;5067118;28;20216;-87
2021/11/17 18:41:56;;;;;;;4.30;3.90;;;5.80;90.90;;;;;;5064224;28;20194;-87
2021/11/17 18:44:25;;;;;;;4.40;4.00;;;5.80;91.00;;;;;;5069888;28;20232;-87
2021/11/17 18:46:52;;;;;;;4.97;4.20;;;5.80;91.10;;;;;;5066774;28;20220;-86
2021/11/17 18:49:28;;;;;;;4.73;3.70;;;5.80;91.30;;;;;;5070091;28;20228;-87
2021/11/17 18:51:55;;;;;;;4.70;4.10;;;5.90;91.00;;;;;;5071892;28;20204;-88
2021/11/17 18:54:23;;;;;;;5.00;3.80;;;5.90;91.00;;;;;;5061662;28;21523;-88
2021/11/17 18:56:53;;;;;;;4.77;3.67;;;5.90;91.00;;;;;;5072376;28;20201;-87
2021/11/17 18:59:22;;;;;;;4.00;3.60;;;6.00;91.00;;;;;;5070242;28;20229;-88
2021/11/17 19:01:52;;;;;;;8.20;3.67;;;6.10;90.70;;;;;;5063501;28;20556;-88
2021/11/17 19:04:20;;;;;;;5.33;3.93;;;6.10;90.70;;;;;;5066148;28;20577;-88
2021/11/17 19:06:50;;;;;;;4.27;3.87;;;6.00;90.90;;;;;;5067757;28;20308;-88
2021/11/17 19:09:19;;;;;;;4.90;4.40;;;6.00;90.90;;;;;;5064702;28;20241;-88
2021/11/17 19:11:58;;;;;;;5.17;4.53;;;5.90;91.10;;;;;;5073244;28;20456;-87
2021/11/17 19:14:32;;;;;;;4.57;3.90;;;5.90;91.10;;;;;;5062114;28;20891;-88
2021/11/17 19:17:02;;;;;;;4.30;3.90;;;5.90;91.10;;;;;;5071350;28;20204;-89
2021/11/17 19:19:30;;;;;;;4.63;3.80;;;5.90;91.10;;;;;;5048841;28;20213;-89
2021/11/17 19:21:57;;;;;;;5.03;3.70;;;6.00;91.00;;;;;;5075034;28;20575;-88
2021/11/17 19:24:26;;;;;;;5.57;4.47;;;6.00;91.00;;;;;;5073815;28;20308;-89
2021/11/17 19:26:54;;;;;;;5.33;4.40;;;6.00;90.80;;;;;;5071895;28;20213;-88
2021/11/17 19:29:22;;;;;;;5.60;3.83;;;6.00;91.10;;;;;;5071580;28;20260;-87
2021/11/17 19:31:49;;;;;;;4.87;4.37;;;6.00;90.80;;;;;;5072751;28;20197;-89
2021/11/17 19:34:18;;;;;;;5.73;4.70;;;6.10;90.60;;;;;;5073135;28;20591;-87
2021/11/17 19:36:45;;;;;;;4.40;4.00;;;6.00;90.70;;;;;;5076755;28;20198;-88
2021/11/17 19:39:13;;;;;;;4.47;4.07;;;5.90;90.90;;;;;;5067685;28;20255;-88
2021/11/17 19:41:44;;;;;;;4.67;4.17;;;5.90;91.10;;;;;;5067048;28;20198;-88
2021/11/17 19:44:13;;;;;;;6.47;4.30;;;5.90;91.20;;;;;;5071964;28;20558;-87
2021/11/17 19:46:41;;;;;;;4.57;4.17;;;6.00;91.00;;;;;;5079685;28;20241;-86
2021/11/17 19:49:10;;;;;;;4.80;4.30;;;6.00;90.80;;;;;;5078056;28;20222;-87
2021/11/17 19:51:41;;;;;;;4.50;4.10;;;6.00;91.00;;;;;;5071906;28;20219;-87
2021/11/17 19:54:10;;;;;;;4.40;4.00;;;5.90;90.80;;;;;;5067328;28;20222;-87
2021/11/17 19:56:38;;;;;;;5.47;4.47;;;5.90;90.90;;;;;;5068125;28;20644;-87
2021/11/17 19:59:08;;;;;;;5.43;4.40;;;5.90;90.90;;;;;;5069493;28;20921;-87
2021/11/17 20:01:35;;;;;;;4.83;4.20;;;5.90;91.10;;;;;;5070023;28;20197;-87
2021/11/17 20:04:02;;;;;;;5.23;4.50;;;5.90;91.30;;;;;;5071019;28;20221;-87
2021/11/17 20:06:31;;;;;;;4.80;4.40;;;6.00;91.00;;;;;;5072688;28;20221;-87
2021/11/17 20:08:59;;;;;;;6.33;5.37;;;6.00;90.80;;;;;;5063666;28;20743;-89
2021/11/17 20:11:26;;;;;;;5.53;4.80;;;6.00;91.00;;;;;;5064960;28;20227;-88
2021/11/17 20:13:53;;;;;;;5.77;5.17;;;6.00;90.80;;;;;;5061228;28;20236;-88
2021/11/17 20:16:21;;;;;;;5.27;4.77;;;6.00;90.80;;;;;;5065822;28;20248;-86
2021/11/17 20:18:48;;;;;;;5.23;4.73;;;6.00;91.00;;;;;;5063154;28;20221;-86